Time;durP1;ratioP1;P1;durP2;ratioP2;P2;SDS_P1;SDS_P2;PMS_P1;PMS_P2;Temp;Humidity;BMP_temperature;BMP_pressure;BME280_temperature;BME280_humidity;BME280_pressure;Samples;Min_cycle;Max_cycle;Signal;HPM_P1;HPM_P2
2021/01/17 00:00:32;;;;;;;;;;;27.70;32.90;;;;;;5087222;28;19927;-48
2021/01/17 00:02:58;;;;;;;;;;;27.80;32.80;;;;;;5075560;28;19916;-49
2021/01/17 00:05:24;;;;;;;;;;;27.80;32.60;;;;;;5073630;28;19912;-55
2021/01/17 00:07:50;;;;;;;;;;;27.80;33.10;;;;;;5073494;28;20367;-52
2021/01/17 00:10:16;;;;;;;;;;;27.80;32.70;;;;;;5073637;28;20355;-58
2021/01/17 00:12:42;;;;;;;;;;;27.80;32.50;;;;;;5073467;28;20282;-59
2021/01/17 00:15:08;;;;;;;;;;;27.80;32.70;;;;;;5074730;28;19908;-58
2021/01/17 00:17:34;;;;;;;;;;;27.80;32.80;;;;;;5073470;28;19919;-57
2021/01/17 00:20:00;;;;;;;;;;;27.70;32.60;;;;;;5073399;28;20007;-60
2021/01/17 00:22:25;;;;;;;;;;;27.70;32.50;;;;;;5073269;28;19917;-51
2021/01/17 00:24:51;;;;;;;;;;;27.70;32.80;;;;;;5073121;28;20363;-57
2021/01/17 00:27:16;;;;;;;;;;;27.70;33.20;;;;;;5073230;28;19908;-58
2021/01/17 00:29:42;;;;;;;;;;;27.70;32.70;;;;;;5078991;28;20367;-61
2021/01/17 00:32:13;;;;;;;;;;;27.70;32.60;;;;;;5093170;28;19926;-56
2021/01/17 00:34:38;;;;;;;;;;;27.70;33.20;;;;;;5093103;28;19908;-57
2021/01/17 00:37:04;;;;;;;;;;;27.70;32.80;;;;;;5089759;28;19923;-51
2021/01/17 00:39:29;;;;;;;;;;;27.70;32.40;;;;;;5093398;28;19999;-57
2021/01/17 00:41:55;;;;;;;;;;;27.70;32.60;;;;;;5093028;28;19923;-56
2021/01/17 00:44:20;;;;;;;;;;;27.80;32.80;;;;;;5093349;28;19908;-56
2021/01/17 00:46:46;;;;;;;;;;;27.70;33.00;;;;;;5073298;28;19969;-52
2021/01/17 00:49:11;;;;;;;;;;;27.70;32.50;;;;;;5073321;28;19908;-58
2021/01/17 00:51:41;;;;;;;;;;;27.70;32.90;;;;;;5073122;28;19917;-62
2021/01/17 00:54:07;;;;;;;;;;;27.70;32.60;;;;;;5072790;28;20332;-61
2021/01/17 00:56:32;;;;;;;;;;;27.70;32.60;;;;;;5073031;28;19952;-53
2021/01/17 00:58:58;;;;;;;;;;;27.70;32.90;;;;;;5072634;28;19916;-53
2021/01/17 01:01:23;;;;;;;;;;;27.80;32.80;;;;;;5072673;28;19956;-51
2021/01/17 01:03:48;;;;;;;;;;;27.80;32.30;;;;;;5072878;28;20362;-50
2021/01/17 01:06:17;;;;;;;;;;;27.80;32.50;;;;;;5074188;28;20007;-49
2021/01/17 01:08:43;;;;;;;;;;;27.80;32.50;;;;;;5083327;28;19948;-58
2021/01/17 01:11:08;;;;;;;;;;;27.80;32.40;;;;;;5092922;28;19931;-60
2021/01/17 01:13:34;;;;;;;;;;;27.70;32.80;;;;;;5093104;28;20286;-57
2021/01/17 01:15:59;;;;;;;;;;;27.80;32.60;;;;;;5079249;28;19913;-62
2021/01/17 01:18:25;;;;;;;;;;;27.70;32.50;;;;;;5072752;28;19931;-60
2021/01/17 01:20:50;;;;;;;;;;;27.70;32.50;;;;;;5075181;28;19920;-57
2021/01/17 01:23:16;;;;;;;;;;;27.70;32.60;;;;;;5084945;28;19916;-62
2021/01/17 01:25:41;;;;;;;;;;;27.70;32.70;;;;;;5097068;28;19908;-59
2021/01/17 01:28:06;;;;;;;;;;;27.80;32.40;;;;;;5096597;28;19908;-58
2021/01/17 01:30:32;;;;;;;;;;;27.70;32.30;;;;;;5096656;28;19908;-60
2021/01/17 01:32:57;;;;;;;;;;;27.70;32.10;;;;;;5096638;28;20365;-61
2021/01/17 01:35:23;;;;;;;;;;;27.70;32.40;;;;;;5096574;28;19908;-49
2021/01/17 01:37:48;;;;;;;;;;;27.70;32.20;;;;;;5077201;28;20010;-53
2021/01/17 01:40:14;;;;;;;;;;;27.70;32.50;;;;;;5089542;28;19912;-49
2021/01/17 01:42:42;;;;;;;;;;;27.70;32.40;;;;;;5096738;28;19912;-55
2021/01/17 01:45:09;;;;;;;;;;;27.70;32.60;;;;;;5090118;28;19909;-56
2021/01/17 01:47:35;;;;;;;;;;;27.70;32.60;;;;;;5075897;28;19908;-54
2021/01/17 01:50:00;;;;;;;;;;;27.70;32.40;;;;;;5092040;28;20717;-56
2021/01/17 01:52:25;;;;;;;;;;;27.70;32.30;;;;;;5076291;28;19912;-59
2021/01/17 01:54:51;;;;;;;;;;;27.70;32.50;;;;;;5087820;28;20294;-58
2021/01/17 01:57:17;;;;;;;;;;;27.70;32.40;;;;;;5096478;28;19940;-55
2021/01/17 01:59:43;;;;;;;;;;;27.70;32.60;;;;;;5094808;28;20418;-51
2021/01/17 02:02:08;;;;;;;;;;;27.60;33.40;;;;;;5095915;28;19916;-53
2021/01/17 02:04:36;;;;;;;;;;;27.50;33.90;;;;;;5096241;28;19908;-62
2021/01/17 02:07:21;;;;;;;;;;;27.60;33.60;;;;;;5082903;28;19916;-61
2021/01/17 02:09:46;;;;;;;;;;;27.60;33.20;;;;;;5056699;28;19967;-63
2021/01/17 02:12:31;;;;;;;;;;;27.60;32.80;;;;;;5071141;28;19909;-56
2021/01/17 02:15:07;;;;;;;;;;;27.60;32.70;;;;;;5060337;28;20208;-59
2021/01/17 02:17:33;;;;;;;;;;;27.60;32.40;;;;;;5091100;28;19961;-62
2021/01/17 02:20:04;;;;;;;;;;;27.60;32.60;;;;;;5075426;28;19912;-54
2021/01/17 02:22:35;;;;;;;;;;;27.50;33.20;;;;;;5076775;28;19939;-64
2021/01/17 02:25:02;;;;;;;;;;;27.50;33.10;;;;;;5095828;28;19966;-63
2021/01/17 02:27:27;;;;;;;;;;;27.50;33.30;;;;;;5083100;28;19913;-55
2021/01/17 02:29:53;;;;;;;;;;;27.60;33.80;;;;;;5075107;28;20354;-55
2021/01/17 02:32:18;;;;;;;;;;;27.50;33.40;;;;;;5072622;28;19920;-56
2021/01/17 02:34:44;;;;;;;;;;;27.50;33.70;;;;;;5074326;28;19999;-53
2021/01/17 02:37:28;;;;;;;;;;;27.60;33.40;;;;;;5087886;28;19968;-55
2021/01/17 02:40:20;;;;;;;;;;;27.70;33.60;;;;;;5095581;28;19983;-53
2021/01/17 02:42:46;;;;;;;;;;;27.60;33.50;;;;;;5078811;28;20286;-59
2021/01/17 02:45:11;;;;;;;;;;;27.50;33.20;;;;;;5088768;28;19908;-60
2021/01/17 02:47:36;;;;;;;;;;;27.50;32.70;;;;;;5090566;28;19913;-62
2021/01/17 02:50:02;;;;;;;;;;;27.50;32.90;;;;;;5075172;28;19912;-58
2021/01/17 02:52:29;;;;;;;;;;;27.60;32.50;;;;;;5092001;28;20326;-49
2021/01/17 02:54:54;;;;;;;;;;;27.50;32.30;;;;;;5095304;28;19943;-51
2021/01/17 02:57:20;;;;;;;;;;;27.50;32.00;;;;;;5093800;28;19977;-51
2021/01/17 02:59:56;;;;;;;;;;;27.50;32.10;;;;;;5093500;28;20312;-53
2021/01/17 03:02:22;;;;;;;;;;;27.50;32.10;;;;;;5074554;28;20003;-58
2021/01/17 03:04:50;;;;;;;;;;;27.40;31.60;;;;;;5090638;28;19912;-61
2021/01/17 03:07:16;;;;;;;;;;;27.40;31.30;;;;;;5074793;28;19908;-63
2021/01/17 03:09:42;;;;;;;;;;;27.40;31.30;;;;;;5090111;28;20003;-61
2021/01/17 03:12:07;;;;;;;;;;;27.40;30.50;;;;;;5090151;28;20005;-63
2021/01/17 03:14:36;;;;;;;;;;;27.40;30.60;;;;;;5074453;28;19957;-63
2021/01/17 03:17:05;;;;;;;;;;;27.40;30.50;;;;;;5090250;28;19977;-63
2021/01/17 03:19:31;;;;;;;;;;;27.40;30.00;;;;;;5074267;28;20323;-56
2021/01/17 03:21:56;;;;;;;;;;;27.40;29.90;;;;;;5074506;28;19946;-57
2021/01/17 03:24:22;;;;;;;;;;;27.40;29.90;;;;;;5074373;28;20266;-56
2021/01/17 03:26:47;;;;;;;;;;;27.40;29.70;;;;;;5074213;28;19966;-63
2021/01/17 03:29:13;;;;;;;;;;;27.40;29.70;;;;;;5078421;28;19920;-50
2021/01/17 03:31:38;;;;;;;;;;;27.30;30.20;;;;;;5094166;28;19924;-59
2021/01/17 03:34:03;;;;;;;;;;;27.30;30.90;;;;;;5094609;28;19908;-64
2021/01/17 03:36:29;;;;;;;;;;;27.30;30.60;;;;;;5094534;28;19952;-62
2021/01/17 03:38:54;;;;;;;;;;;27.40;30.00;;;;;;5094172;28;19908;-61
2021/01/17 03:41:20;;;;;;;;;;;27.40;29.90;;;;;;5094432;28;20014;-55
2021/01/17 03:43:45;;;;;;;;;;;27.50;30.00;;;;;;5089562;28;19920;-46
2021/01/17 03:46:11;;;;;;;;;;;27.50;30.20;;;;;;5073865;28;19912;-48
2021/01/17 03:48:36;;;;;;;;;;;27.50;30.30;;;;;;5074021;28;19915;-49
2021/01/17 03:51:02;;;;;;;;;;;27.50;30.00;;;;;;5074042;28;19915;-54
2021/01/17 03:53:27;;;;;;;;;;;27.50;31.10;;;;;;5073693;28;20286;-61
2021/01/17 03:55:53;;;;;;;;;;;27.50;30.90;;;;;;5073987;28;19909;-55
2021/01/17 03:58:18;;;;;;;;;;;27.50;30.50;;;;;;5073558;28;19935;-51
2021/01/17 04:00:43;;;;;;;;;;;27.50;30.50;;;;;;5090485;28;19924;-50
2021/01/17 04:03:09;;;;;;;;;;;27.60;31.10;;;;;;5094072;28;19908;-53
2021/01/17 04:05:34;;;;;;;;;;;27.50;31.00;;;;;;5094003;28;19958;-52
2021/01/17 04:08:00;;;;;;;;;;;27.60;31.30;;;;;;5093644;28;19952;-54
2021/01/17 04:10:25;;;;;;;;;;;27.60;31.20;;;;;;5093945;28;19908;-53
2021/01/17 04:12:51;;;;;;;;;;;27.60;30.80;;;;;;5093651;28;19916;-53
2021/01/17 04:15:16;;;;;;;;;;;27.60;31.10;;;;;;5078109;28;20325;-55
2021/01/17 04:17:42;;;;;;;;;;;27.60;31.60;;;;;;5073448;28;19915;-50
2021/01/17 04:20:07;;;;;;;;;;;27.50;31.20;;;;;;5073560;28;19909;-53
2021/01/17 04:22:39;;;;;;;;;;;27.50;31.40;;;;;;5078886;28;19967;-54
2021/01/17 04:25:05;;;;;;;;;;;27.50;30.70;;;;;;5082210;28;19924;-54
2021/01/17 04:27:30;;;;;;;;;;;27.50;31.20;;;;;;5073352;28;19916;-52
2021/01/17 04:29:56;;;;;;;;;;;27.50;31.10;;;;;;5073045;28;19908;-51
2021/01/17 04:32:21;;;;;;;;;;;27.50;31.40;;;;;;5073024;28;19921;-48
2021/01/17 04:34:48;;;;;;;;;;;27.50;31.30;;;;;;5072558;28;20301;-59
2021/01/17 04:37:14;;;;;;;;;;;27.50;32.00;;;;;;5073125;28;19977;-57
2021/01/17 04:39:39;;;;;;;;;;;27.50;31.40;;;;;;5082039;28;19920;-59
2021/01/17 04:42:07;;;;;;;;;;;27.50;31.60;;;;;;5093373;28;20019;-50
2021/01/17 04:44:34;;;;;;;;;;;27.50;31.50;;;;;;5092009;28;19912;-55
2021/01/17 04:47:01;;;;;;;;;;;27.50;31.10;;;;;;5071025;28;19909;-50
2021/01/17 04:49:26;;;;;;;;;;;27.50;32.10;;;;;;5081303;28;20385;-51
2021/01/17 04:51:52;;;;;;;;;;;27.50;32.80;;;;;;5080674;28;19994;-53
2021/01/17 04:54:17;;;;;;;;;;;27.40;32.40;;;;;;5086177;28;19953;-59
2021/01/17 04:56:45;;;;;;;;;;;27.40;31.80;;;;;;5084482;28;19913;-50
2021/01/17 04:59:11;;;;;;;;;;;27.40;31.50;;;;;;5093114;28;19912;-53
2021/01/17 05:01:43;;;;;;;;;;;27.40;31.70;;;;;;5093072;28;19916;-57
2021/01/17 05:04:14;;;;;;;;;;;27.40;32.00;;;;;;5091797;28;20317;-56
2021/01/17 05:06:40;;;;;;;;;;;27.40;31.80;;;;;;5092866;28;20386;-56
2021/01/17 05:09:06;;;;;;;;;;;27.40;31.70;;;;;;5090877;28;19908;-57
2021/01/17 05:11:32;;;;;;;;;;;27.40;32.70;;;;;;5092777;28;19927;-61
2021/01/17 05:14:04;;;;;;;;;;;27.30;32.90;;;;;;5092750;28;19915;-54
2021/01/17 05:16:30;;;;;;;;;;;;;;;;;;5085522;28;19908;-60
2021/01/17 05:18:55;;;;;;;;;;;27.20;32.50;;;;;;5073246;28;20346;-59
2021/01/17 05:21:21;;;;;;;;;;;27.20;32.70;;;;;;5070424;28;19921;-59
2021/01/17 05:23:46;;;;;;;;;;;27.20;32.60;;;;;;5072489;28;19959;-59
2021/01/17 05:26:11;;;;;;;;;;;27.20;32.50;;;;;;5073774;28;19916;-59
2021/01/17 05:28:37;;;;;;;;;;;27.30;32.30;;;;;;5079546;28;20011;-59
2021/01/17 05:31:02;;;;;;;;;;;27.20;31.90;;;;;;5052460;28;19921;-59
2021/01/17 05:33:29;;;;;;;;;;;27.20;32.80;;;;;;5052349;28;19908;-59
2021/01/17 05:35:55;;;;;;;;;;;27.20;33.40;;;;;;5052652;28;20022;-58
2021/01/17 05:38:20;;;;;;;;;;;27.20;32.70;;;;;;5052335;28;19939;-59
2021/01/17 05:40:46;;;;;;;;;;;27.20;33.30;;;;;;5052266;28;20334;-59
2021/01/17 05:43:11;;;;;;;;;;;27.10;33.00;;;;;;5065780;28;19912;-59
2021/01/17 05:45:37;;;;;;;;;;;27.20;33.20;;;;;;5092812;28;19931;-59
2021/01/17 05:48:03;;;;;;;;;;;27.10;33.10;;;;;;5084262;28;20007;-59
2021/01/17 05:50:29;;;;;;;;;;;27.00;33.10;;;;;;5072564;28;19909;-59
2021/01/17 05:52:58;;;;;;;;;;;27.00;33.10;;;;;;5072521;28;19909;-59
2021/01/17 05:55:30;;;;;;;;;;;27.00;33.10;;;;;;5072462;28;19908;-59
2021/01/17 05:57:59;;;;;;;;;;;27.00;33.10;;;;;;5072483;28;19915;-59
2021/01/17 06:00:33;;;;;;;;;;;27.00;33.20;;;;;;5072104;28;19915;-59
2021/01/17 06:02:59;;;;;;;;;;;27.00;33.10;;;;;;5081382;28;19912;-59
2021/01/17 06:05:25;;;;;;;;;;;26.90;33.30;;;;;;5092339;28;19930;-59
2021/01/17 06:07:50;;;;;;;;;;;26.90;33.40;;;;;;5095894;28;20285;-58
2021/01/17 06:10:20;;;;;;;;;;;26.90;33.10;;;;;;5095006;28;19919;-58
2021/01/17 06:12:46;;;;;;;;;;;26.90;33.50;;;;;;5096224;28;19926;-58
2021/01/17 06:15:12;;;;;;;;;;;26.90;33.50;;;;;;5094623;28;19962;-58
2021/01/17 06:17:38;;;;;;;;;;;26.90;33.70;;;;;;5087257;28;20384;-58
2021/01/17 06:20:04;;;;;;;;;;;26.80;33.80;;;;;;5083896;28;19912;-58
2021/01/17 06:22:30;;;;;;;;;;;26.80;33.70;;;;;;5095592;28;20416;-58
2021/01/17 06:24:59;;;;;;;;;;;26.80;34.00;;;;;;5096035;28;19908;-58
2021/01/17 06:27:24;;;;;;;;;;;26.80;34.10;;;;;;5095908;28;19982;-58
2021/01/17 06:29:50;;;;;;;;;;;26.80;34.10;;;;;;5094348;28;19947;-58
2021/01/17 06:32:16;;;;;;;;;;;26.80;34.10;;;;;;5092328;28;19936;-58
2021/01/17 06:34:42;;;;;;;;;;;26.80;34.30;;;;;;5082465;28;19916;-58
2021/01/17 06:37:08;;;;;;;;;;;26.80;34.40;;;;;;5095610;28;19917;-58
2021/01/17 06:39:33;;;;;;;;;;;26.70;34.70;;;;;;5095701;28;19912;-58
2021/01/17 06:41:59;;;;;;;;;;;26.70;34.70;;;;;;5093990;28;19916;-58
2021/01/17 06:44:28;;;;;;;;;;;26.70;34.70;;;;;;5095257;28;19908;-58
2021/01/17 06:46:54;;;;;;;;;;;26.70;34.90;;;;;;5095565;28;19946;-58
2021/01/17 06:49:20;;;;;;;;;;;26.70;34.90;;;;;;5089429;28;20347;-59
2021/01/17 06:51:46;;;;;;;;;;;26.80;35.20;;;;;;5075176;28;19919;-58
2021/01/17 06:54:12;;;;;;;;;;;26.70;35.10;;;;;;5075782;28;20005;-58
2021/01/17 06:56:37;;;;;;;;;;;26.70;35.20;;;;;;5094169;28;19919;-59
2021/01/17 06:59:03;;;;;;;;;;;26.70;35.10;;;;;;5095326;28;19908;-59
2021/01/17 07:01:28;;;;;;;;;;;26.70;35.10;;;;;;5095219;28;19919;-59
2021/01/17 07:03:57;;;;;;;;;;;26.70;35.20;;;;;;5095189;28;19912;-58
2021/01/17 07:06:33;;;;;;;;;;;26.70;35.20;;;;;;5095140;28;19912;-59
2021/01/17 07:09:06;;;;;;;;;;;26.70;35.30;;;;;;5092598;28;19908;-58
2021/01/17 07:11:32;;;;;;;;;;;26.70;35.30;;;;;;5054945;28;20275;-58
2021/01/17 07:13:59;;;;;;;;;;;26.70;35.20;;;;;;5054447;28;19913;-58
2021/01/17 07:16:28;;;;;;;;;;;26.70;35.10;;;;;;5069918;28;20382;-58
2021/01/17 07:18:54;;;;;;;;;;;26.70;35.10;;;;;;5053580;28;19909;-59
2021/01/17 07:21:19;;;;;;;;;;;26.70;35.20;;;;;;5070035;28;19920;-58
2021/01/17 07:23:45;;;;;;;;;;;26.70;35.20;;;;;;5072595;28;20367;-58
2021/01/17 07:26:10;;;;;;;;;;;26.70;35.20;;;;;;5094458;28;19916;-59
2021/01/17 07:28:36;;;;;;;;;;;26.70;35.20;;;;;;5093498;28;19916;-59
2021/01/17 07:31:01;;;;;;;;;;;26.70;35.20;;;;;;5093018;28;20145;-58
2021/01/17 07:33:27;;;;;;;;;;;26.70;35.10;;;;;;5094273;28;19919;-58
2021/01/17 07:35:54;;;;;;;;;;;26.70;35.10;;;;;;5094591;28;19919;-58
2021/01/17 07:38:21;;;;;;;;;;;26.70;35.20;;;;;;5093941;28;20313;-58
2021/01/17 07:40:53;;;;;;;;;;;26.60;35.10;;;;;;5077981;28;19986;-58
2021/01/17 07:43:22;;;;;;;;;;;26.60;35.10;;;;;;5094396;28;19994;-58
2021/01/17 07:45:48;;;;;;;;;;;26.60;35.20;;;;;;5094297;28;19919;-59
2021/01/17 07:48:14;;;;;;;;;;;26.60;35.20;;;;;;5094268;28;20329;-59
2021/01/17 07:50:43;;;;;;;;;;;26.60;35.20;;;;;;5094347;28;19912;-58
2021/01/17 07:53:27;;;;;;;;;;;26.60;35.10;;;;;;5093973;28;20327;-59
2021/01/17 07:55:58;;;;;;;;;;;26.60;35.20;;;;;;5074872;28;19912;-59
2021/01/17 07:58:24;;;;;;;;;;;26.60;35.20;;;;;;5089493;28;19913;-59
2021/01/17 08:00:49;;;;;;;;;;;26.60;35.20;;;;;;5089508;28;20321;-59
2021/01/17 08:03:23;;;;;;;;;;;26.60;35.20;;;;;;5073605;28;19909;-59
2021/01/17 08:05:49;;;;;;;;;;;26.60;35.20;;;;;;5073816;28;19916;-59
2021/01/17 08:08:47;;;;;;;;;;;26.60;35.20;;;;;;5073726;28;19909;-59
2021/01/17 08:11:31;;;;;;;;;;;26.60;35.20;;;;;;5041195;28;19917;-59
2021/01/17 08:13:56;;;;;;;;;;;26.60;35.20;;;;;;5053428;28;19951;-59
2021/01/17 08:16:22;;;;;;;;;;;26.60;35.10;;;;;;5069135;28;19956;-59
2021/01/17 08:18:48;;;;;;;;;;;26.50;35.10;;;;;;5069113;28;19908;-58
2021/01/17 08:21:17;;;;;;;;;;;26.60;35.20;;;;;;5068576;28;19924;-59
2021/01/17 08:24:01;;;;;;;;;;;26.60;35.20;;;;;;5062446;28;19916;-59
2021/01/17 08:26:46;;;;;;;;;;;26.50;35.10;;;;;;5093614;28;19908;-57
2021/01/17 08:29:11;;;;;;;;;;;26.50;35.20;;;;;;5093201;28;19912;-59
2021/01/17 08:31:38;;;;;;;;;;;26.50;35.20;;;;;;5092061;28;19920;-58
2021/01/17 08:34:07;;;;;;;;;;;26.50;35.20;;;;;;5073239;28;20622;-58
2021/01/17 08:36:33;;;;;;;;;;;26.50;35.10;;;;;;5072860;28;19955;-58
2021/01/17 08:38:58;;;;;;;;;;;26.50;35.10;;;;;;5073229;28;19951;-58
2021/01/17 08:41:27;;;;;;;;;;;26.50;35.10;;;;;;5088814;28;20313;-59
2021/01/17 08:43:55;;;;;;;;;;;26.50;35.10;;;;;;5073025;28;19915;-59
2021/01/17 08:46:36;;;;;;;;;;;26.50;35.10;;;;;;5072250;28;19966;-58
2021/01/17 08:49:02;;;;;;;;;;;26.50;35.10;;;;;;5066735;28;19913;-58
2021/01/17 08:51:27;;;;;;;;;;;26.50;35.20;;;;;;5073157;28;20389;-59
2021/01/17 08:53:53;;;;;;;;;;;26.50;35.10;;;;;;5073083;28;19928;-59
2021/01/17 08:56:19;;;;;;;;;;;26.50;35.10;;;;;;5072782;28;20286;-59
2021/01/17 08:58:45;;;;;;;;;;;26.50;35.10;;;;;;5082339;28;19912;-59
2021/01/17 09:01:11;;;;;;;;;;;26.50;35.10;;;;;;5093083;28;19967;-59
2021/01/17 09:03:42;;;;;;;;;;;26.50;35.10;;;;;;5093122;28;20329;-59
2021/01/17 09:06:11;;;;;;;;;;;26.50;35.10;;;;;;5092998;28;19912;-59
2021/01/17 09:08:36;;;;;;;;;;;26.50;35.10;;;;;;5089559;28;19953;-59
2021/01/17 09:11:02;;;;;;;;;;;26.40;35.10;;;;;;5093336;28;19912;-59
2021/01/17 09:13:28;;;;;;;;;;;26.40;35.10;;;;;;5093076;28;19919;-59
2021/01/17 09:16:00;;;;;;;;;;;26.50;35.10;;;;;;5093069;28;19915;-59
2021/01/17 09:18:29;;;;;;;;;;;26.50;35.10;;;;;;5092717;28;19940;-59
2021/01/17 09:20:55;;;;;;;;;;;26.50;35.10;;;;;;5092667;28;19948;-59
2021/01/17 09:23:20;;;;;;;;;;;26.50;35.10;;;;;;5085306;28;19966;-59
2021/01/17 09:25:47;;;;;;;;;;;26.50;35.10;;;;;;5073353;28;20432;-59
2021/01/17 09:28:13;;;;;;;;;;;26.50;35.00;;;;;;5072482;28;19909;-59
2021/01/17 09:30:39;;;;;;;;;;;26.40;35.00;;;;;;5072560;28;19920;-59
2021/01/17 09:33:04;;;;;;;;;;;26.40;35.00;;;;;;5072794;28;20384;-59
2021/01/17 09:35:29;;;;;;;;;;;26.40;35.10;;;;;;5088024;28;20379;-59
2021/01/17 09:37:58;;;;;;;;;;;26.40;35.10;;;;;;5073289;28;19912;-59
2021/01/17 09:40:24;;;;;;;;;;;26.40;35.00;;;;;;5092591;28;19908;-59
2021/01/17 09:42:51;;;;;;;;;;;26.40;35.00;;;;;;5096656;28;19930;-59
2021/01/17 09:45:16;;;;;;;;;;;26.40;35.00;;;;;;5091284;28;20022;-59
2021/01/17 09:47:41;;;;;;;;;;;26.40;35.00;;;;;;5091794;28;19947;-59
2021/01/17 09:50:10;;;;;;;;;;;26.50;35.10;;;;;;5076092;28;20251;-59
2021/01/17 09:52:36;;;;;;;;;;;26.40;34.90;;;;;;5076039;28;20370;-59
2021/01/17 09:55:02;;;;;;;;;;;26.50;35.00;;;;;;5076252;28;19909;-59
2021/01/17 09:57:27;;;;;;;;;;;26.50;35.00;;;;;;5076075;28;20074;-59
2021/01/17 09:59:53;;;;;;;;;;;26.50;35.00;;;;;;5077853;28;19909;-59
2021/01/17 10:02:19;;;;;;;;;;;26.40;34.90;;;;;;5089566;28;19920;-59
2021/01/17 10:04:44;;;;;;;;;;;26.40;35.00;;;;;;5075844;28;19915;-59
2021/01/17 10:07:13;;;;;;;;;;;26.40;35.00;;;;;;5075709;28;20010;-59
2021/01/17 10:09:38;;;;;;;;;;;26.40;35.00;;;;;;5075890;28;19912;-60
2021/01/17 10:12:04;;;;;;;;;;;26.40;35.10;;;;;;5075716;28;19908;-59
2021/01/17 10:14:30;;;;;;;;;;;26.40;35.10;;;;;;5075988;28;19909;-59
2021/01/17 10:16:56;;;;;;;;;;;26.40;35.10;;;;;;5078108;28;19916;-59
2021/01/17 10:19:32;;;;;;;;;;;26.40;35.00;;;;;;5075695;28;19908;-59
2021/01/17 10:21:58;;;;;;;;;;;26.40;35.00;;;;;;5075385;28;19985;-59
2021/01/17 10:24:24;;;;;;;;;;;26.40;35.00;;;;;;5075820;28;20418;-59
2021/01/17 10:26:51;;;;;;;;;;;26.40;35.00;;;;;;5075407;28;20274;-59
2021/01/17 10:29:20;;;;;;;;;;;26.40;35.00;;;;;;5075418;28;20315;-59
2021/01/17 10:31:47;;;;;;;;;;;26.40;34.90;;;;;;5091905;28;19924;-59
2021/01/17 10:34:12;;;;;;;;;;;26.40;35.00;;;;;;5074865;28;19913;-59
2021/01/17 10:36:38;;;;;;;;;;;26.40;35.00;;;;;;5070542;28;20337;-59
2021/01/17 10:39:03;;;;;;;;;;;26.40;35.00;;;;;;5071066;28;20367;-59
2021/01/17 10:41:29;;;;;;;;;;;26.40;35.00;;;;;;5055279;28;19959;-59
2021/01/17 10:43:57;;;;;;;;;;;26.40;35.00;;;;;;5070776;28;20280;-59
2021/01/17 10:46:22;;;;;;;;;;;26.40;34.90;;;;;;5055393;28;19912;-59
2021/01/17 10:48:51;;;;;;;;;;;26.40;34.90;;;;;;5099937;28;20003;-59
2021/01/17 10:51:17;;;;;;;;;;;26.40;34.90;;;;;;5095244;28;19991;-59
2021/01/17 10:53:46;;;;;;;;;;;26.40;35.00;;;;;;5093135;28;19962;-58
2021/01/17 10:56:11;;;;;;;;;;;26.40;35.00;;;;;;5094150;28;19912;-59
2021/01/17 10:58:40;;;;;;;;;;;26.40;35.00;;;;;;5095245;28;19919;-59
2021/01/17 11:01:06;;;;;;;;;;;26.40;35.00;;;;;;5091890;28;19963;-58
2021/01/17 11:03:41;;;;;;;;;;;26.40;35.00;;;;;;5093298;28;20591;-58
2021/01/17 11:06:12;;;;;;;;;;;26.40;35.00;;;;;;5094890;28;20362;-59
2021/01/17 11:08:51;;;;;;;;;;;26.40;35.00;;;;;;5079173;28;19913;-59
2021/01/17 11:11:17;;;;;;;;;;;26.40;35.10;;;;;;5074714;28;19992;-58
2021/01/17 11:13:42;;;;;;;;;;;26.40;35.20;;;;;;5074900;28;20347;-59
2021/01/17 11:16:08;;;;;;;;;;;26.40;35.20;;;;;;5074478;28;20385;-59
2021/01/17 11:18:33;;;;;;;;;;;26.40;35.20;;;;;;5092942;28;19920;-58
2021/01/17 11:20:59;;;;;;;;;;;26.40;35.20;;;;;;5081690;28;19976;-58
2021/01/17 11:23:25;;;;;;;;;;;26.40;35.20;;;;;;5094825;28;19909;-59
2021/01/17 11:25:57;;;;;;;;;;;26.40;35.10;;;;;;5094870;28;20449;-58
2021/01/17 11:28:23;;;;;;;;;;;26.40;35.10;;;;;;5086807;28;19923;-59
2021/01/17 11:30:49;;;;;;;;;;;26.40;35.10;;;;;;5094231;28;19926;-58
2021/01/17 11:33:14;;;;;;;;;;;26.40;35.20;;;;;;5094798;28;19908;-58
2021/01/17 11:35:40;;;;;;;;;;;26.40;35.20;;;;;;5094404;28;19908;-59
2021/01/17 11:38:05;;;;;;;;;;;26.40;35.20;;;;;;5094330;28;19953;-59
2021/01/17 11:40:31;;;;;;;;;;;26.40;35.20;;;;;;5094178;28;19943;-59
2021/01/17 11:43:03;;;;;;;;;;;26.40;35.20;;;;;;5087547;28;19962;-58
2021/01/17 11:45:28;;;;;;;;;;;26.40;35.20;;;;;;5073917;28;19909;-59
2021/01/17 11:47:57;;;;;;;;;;;26.40;35.20;;;;;;5074154;28;19916;-59
2021/01/17 11:50:23;;;;;;;;;;;26.40;35.10;;;;;;5073862;28;19920;-59
2021/01/17 11:52:58;;;;;;;;;;;26.40;35.10;;;;;;5073763;28;19909;-59
2021/01/17 11:55:24;;;;;;;;;;;26.40;35.20;;;;;;5074028;28;19909;-59
2021/01/17 11:57:49;;;;;;;;;;;26.40;35.30;;;;;;5071022;28;19936;-59
2021/01/17 12:00:15;;;;;;;;;;;26.30;35.30;;;;;;5073902;28;20282;-59
2021/01/17 12:02:41;;;;;;;;;;;26.30;35.20;;;;;;5058154;28;19925;-58
2021/01/17 12:05:07;;;;;;;;;;;26.30;35.30;;;;;;5093270;28;19912;-58
2021/01/17 12:07:32;;;;;;;;;;;26.30;35.30;;;;;;5093688;28;19953;-59
2021/01/17 12:10:16;;;;;;;;;;;26.40;35.30;;;;;;5094026;28;19912;-59
2021/01/17 12:12:41;;;;;;;;;;;26.40;35.30;;;;;;5092333;28;19995;-58
2021/01/17 12:15:07;;;;;;;;;;;26.40;35.30;;;;;;5093667;28;19991;-58
2021/01/17 12:17:32;;;;;;;;;;;26.40;35.30;;;;;;5093223;28;19915;-58
2021/01/17 12:19:58;;;;;;;;;;;26.40;35.30;;;;;;5073579;28;20481;-59
2021/01/17 12:22:23;;;;;;;;;;;26.40;35.40;;;;;;5073461;28;19921;-59
2021/01/17 12:24:49;;;;;;;;;;;26.40;35.40;;;;;;5073534;28;19931;-59
2021/01/17 12:27:14;;;;;;;;;;;26.40;35.30;;;;;;5077274;28;19916;-59
2021/01/17 12:29:40;;;;;;;;;;;26.40;35.20;;;;;;5073120;28;20398;-59
2021/01/17 12:32:06;;;;;;;;;;;26.40;35.20;;;;;;5072958;28;19967;-59
2021/01/17 12:34:31;;;;;;;;;;;26.40;35.20;;;;;;5072974;28;19912;-59
2021/01/17 12:36:56;;;;;;;;;;;26.40;35.20;;;;;;5072979;28;19909;-59
2021/01/17 12:39:22;;;;;;;;;;;26.30;35.20;;;;;;5073031;28;19908;-59
2021/01/17 12:41:48;;;;;;;;;;;26.30;35.20;;;;;;5073013;28;19921;-59
2021/01/17 12:44:16;;;;;;;;;;;26.40;35.30;;;;;;5073240;28;19913;-58
2021/01/17 12:46:42;;;;;;;;;;;26.40;35.20;;;;;;5077263;28;20350;-58
2021/01/17 12:49:08;;;;;;;;;;;26.40;35.20;;;;;;5093433;28;19916;-59
2021/01/17 12:51:33;;;;;;;;;;;26.40;35.30;;;;;;5093428;28;19908;-58
2021/01/17 12:53:59;;;;;;;;;;;26.40;35.20;;;;;;5093082;28;19919;-59
2021/01/17 12:56:24;;;;;;;;;;;26.30;35.20;;;;;;5093249;28;20008;-58
2021/01/17 12:58:50;;;;;;;;;;;26.30;35.20;;;;;;5091476;28;19935;-59
2021/01/17 13:01:15;;;;;;;;;;;26.30;35.20;;;;;;5092930;28;20290;-59
2021/01/17 13:03:41;;;;;;;;;;;26.30;32.70;;;;;;5093287;28;19912;-59
2021/01/17 13:06:07;;;;;;;;;;;26.30;33.50;;;;;;5093225;28;20354;-59
2021/01/17 13:08:32;;;;;;;;;;;26.30;33.90;;;;;;5093151;28;19909;-59
2021/01/17 13:10:58;;;;;;;;;;;26.40;34.10;;;;;;5092802;28;20254;-59
2021/01/17 13:13:23;;;;;;;;;;;26.50;34.40;;;;;;5087707;28;19913;-59
2021/01/17 13:15:49;;;;;;;;;;;;;;;;;;5082518;28;19932;-59
2021/01/17 13:18:15;;;;;;;;;;;26.40;32.30;;;;;;5097302;28;20030;-60
2021/01/17 13:20:41;;;;;;;;;;;26.50;33.50;;;;;;5096957;28;19912;-59
2021/01/17 13:23:07;;;;;;;;;;;26.70;35.20;;;;;;5097235;28;19915;-59
2021/01/17 13:25:32;;;;;;;;;;;26.70;38.10;;;;;;5096783;28;20286;-60
2021/01/17 13:27:58;;;;;;;;;;;26.80;40.60;;;;;;5085587;28;19912;-59
2021/01/17 13:30:23;;;;;;;;;;;26.80;41.90;;;;;;5085176;28;19912;-64
2021/01/17 13:32:49;;;;;;;;;;;;;;;;;;5095309;28;20366;-60
2021/01/17 13:35:15;;;;;;;;;;;;;;;;;;5082103;28;20463;-55
2021/01/17 13:37:41;;;;;;;;;;;23.90;31.70;;;;;;5094737;28;19924;-58
2021/01/17 13:40:06;;;;;;;;;;;24.30;33.90;;;;;;5094866;28;20274;-57
2021/01/17 13:42:32;;;;;;;;;;;25.00;34.40;;;;;;5096749;28;19916;-58
2021/01/17 13:44:57;;;;;;;;;;;25.40;34.80;;;;;;5095305;28;20020;-58
2021/01/17 13:47:23;;;;;;;;;;;25.90;34.60;;;;;;5096384;28;19908;-58
2021/01/17 13:49:51;;;;;;;;;;;26.20;34.40;;;;;;5084228;28;19913;-58
2021/01/17 13:52:17;;;;;;;;;;;26.40;34.30;;;;;;5077520;28;20263;-59
2021/01/17 13:54:42;;;;;;;;;;;26.60;34.30;;;;;;5092174;28;19919;-59
2021/01/17 13:57:08;;;;;;;;;;;26.80;34.60;;;;;;5095078;28;19981;-59
2021/01/17 13:59:33;;;;;;;;;;;26.90;34.40;;;;;;5096364;28;19915;-60
2021/01/17 14:01:59;;;;;;;;;;;27.00;34.50;;;;;;5075994;28;19916;-60
2021/01/17 14:04:24;;;;;;;;;;;27.00;34.30;;;;;;5088119;28;19912;-59
2021/01/17 14:06:49;;;;;;;;;;;27.10;34.80;;;;;;5083700;28;19919;-60
2021/01/17 14:09:16;;;;;;;;;;;27.10;34.80;;;;;;5076126;28;20424;-60
2021/01/17 14:11:43;;;;;;;;;;;27.20;34.90;;;;;;5075678;28;20366;-60
2021/01/17 14:14:08;;;;;;;;;;;27.20;34.90;;;;;;5075985;28;20283;-60
2021/01/17 14:16:43;;;;;;;;;;;27.20;35.00;;;;;;5075747;28;19934;-60